sensor_id;sensor_type;location;lat;lon;timestamp;temperature;humidity
3069;DHT22;1545;51.728;8.796;2023-02-01T00:00:04;4.20;98.80
3069;DHT22;1545;51.728;8.796;2023-02-01T00:02:30;4.20;98.80
3069;DHT22;1545;51.728;8.796;2023-02-01T00:04:55;4.20;98.80
3069;DHT22;1545;51.728;8.796;2023-02-01T00:07:21;4.20;98.80
3069;DHT22;1545;51.728;8.796;2023-02-01T00:09:46;4.20;98.80
3069;DHT22;1545;51.728;8.796;2023-02-01T00:12:12;4.20;98.80
3069;DHT22;1545;51.728;8.796;2023-02-01T00:14:37;4.20;98.80
3069;DHT22;1545;51.728;8.796;2023-02-01T00:17:05;4.20;98.80
3069;DHT22;1545;51.728;8.796;2023-02-01T00:19:32;4.30;98.80
3069;DHT22;1545;51.728;8.796;2023-02-01T00:21:58;4.40;98.80
3069;DHT22;1545;51.728;8.796;2023-02-01T00:24:24;4.40;98.50
3069;DHT22;1545;51.728;8.796;2023-02-01T00:26:49;4.40;98.40
3069;DHT22;1545;51.728;8.796;2023-02-01T00:29:17;4.40;98.30
3069;DHT22;1545;51.728;8.796;2023-02-01T00:31:44;4.40;98.20
3069;DHT22;1545;51.728;8.796;2023-02-01T00:34:12;4.30;98.20
3069;DHT22;1545;51.728;8.796;2023-02-01T00:36:39;4.30;98.30
3069;DHT22;1545;51.728;8.796;2023-02-01T00:39:04;4.30;98.30
3069;DHT22;1545;51.728;8.796;2023-02-01T00:41:30;4.40;98.30
3069;DHT22;1545;51.728;8.796;2023-02-01T00:43:55;4.30;98.20
3069;DHT22;1545;51.728;8.796;2023-02-01T00:46:21;4.30;98.10
3069;DHT22;1545;51.728;8.796;2023-02-01T00:48:47;4.30;98.30
3069;DHT22;1545;51.728;8.796;2023-02-01T00:51:15;4.30;98.30
3069;DHT22;1545;51.728;8.796;2023-02-01T00:53:41;4.30;98.50
3069;DHT22;1545;51.728;8.796;2023-02-01T00:56:08;4.40;98.50
3069;DHT22;1545;51.728;8.796;2023-02-01T00:58:33;4.40;98.30
3069;DHT22;1545;51.728;8.796;2023-02-01T01:03:38;4.50;98.30
3069;DHT22;1545;51.728;8.796;2023-02-01T01:06:10;4.50;98.10
3069;DHT22;1545;51.728;8.796;2023-02-01T01:08:36;4.50;98.00
3069;DHT22;1545;51.728;8.796;2023-02-01T01:11:10;4.50;98.20
3069;DHT22;1545;51.728;8.796;2023-02-01T01:13:36;4.50;98.20
3069;DHT22;1545;51.728;8.796;2023-02-01T01:16:03;4.50;98.30
3069;DHT22;1545;51.728;8.796;2023-02-01T01:18:30;4.50;98.40
3069;DHT22;1545;51.728;8.796;2023-02-01T01:20:56;4.60;98.40
3069;DHT22;1545;51.728;8.796;2023-02-01T01:23:22;4.60;98.10
3069;DHT22;1545;51.728;8.796;2023-02-01T01:25:47;4.60;98.20
3069;DHT22;1545;51.728;8.796;2023-02-01T01:28:12;4.60;98.00
3069;DHT22;1545;51.728;8.796;2023-02-01T01:30:38;4.60;98.20
3069;DHT22;1545;51.728;8.796;2023-02-01T01:33:04;4.60;98.20
3069;DHT22;1545;51.728;8.796;2023-02-01T01:35:30;4.70;98.10
3069;DHT22;1545;51.728;8.796;2023-02-01T01:37:57;4.70;98.20
3069;DHT22;1545;51.728;8.796;2023-02-01T01:40:23;4.80;98.20
3069;DHT22;1545;51.728;8.796;2023-02-01T01:42:49;4.80;98.30
3069;DHT22;1545;51.728;8.796;2023-02-01T01:45:30;4.80;98.20
3069;DHT22;1545;51.728;8.796;2023-02-01T01:47:59;4.80;98.40
3069;DHT22;1545;51.728;8.796;2023-02-01T01:50:37;4.80;98.50
3069;DHT22;1545;51.728;8.796;2023-02-01T01:53:06;4.80;98.60
3069;DHT22;1545;51.728;8.796;2023-02-01T01:55:36;4.80;98.80
3069;DHT22;1545;51.728;8.796;2023-02-01T01:58:08;4.90;98.80
3069;DHT22;1545;51.728;8.796;2023-02-01T02:00:35;4.90;98.80
3069;DHT22;1545;51.728;8.796;2023-02-01T02:03:05;4.90;98.80
3069;DHT22;1545;51.728;8.796;2023-02-01T02:05:32;4.90;98.80
3069;DHT22;1545;51.728;8.796;2023-02-01T02:07:59;4.90;98.80
3069;DHT22;1545;51.728;8.796;2023-02-01T02:10:27;4.90;98.80
3069;DHT22;1545;51.728;8.796;2023-02-01T02:13:13;4.90;98.80
3069;DHT22;1545;51.728;8.796;2023-02-01T02:15:45;5.00;98.50
3069;DHT22;1545;51.728;8.796;2023-02-01T02:18:27;5.00;98.20
3069;DHT22;1545;51.728;8.796;2023-02-01T02:21:15;5.00;98.00
3069;DHT22;1545;51.728;8.796;2023-02-01T02:24:22;5.10;97.70
3069;DHT22;1545;51.728;8.796;2023-02-01T02:26:59;5.10;97.80
3069;DHT22;1545;51.728;8.796;2023-02-01T02:30:09;5.10;97.10
3069;DHT22;1545;51.728;8.796;2023-02-01T02:33:01;5.10;97.00
3069;DHT22;1545;51.728;8.796;2023-02-01T02:35:30;5.10;96.90
3069;DHT22;1545;51.728;8.796;2023-02-01T02:41:05;5.20;96.30
3069;DHT22;1545;51.728;8.796;2023-02-01T02:43:48;5.20;96.30
3069;DHT22;1545;51.728;8.796;2023-02-01T02:46:43;5.20;96.10
3069;DHT22;1545;51.728;8.796;2023-02-01T02:49:54;5.20;95.60
3069;DHT22;1545;51.728;8.796;2023-02-01T02:52:49;5.20;95.00
3069;DHT22;1545;51.728;8.796;2023-02-01T02:55:36;5.20;95.00
3069;DHT22;1545;51.728;8.796;2023-02-01T02:58:04;5.20;94.60
3069;DHT22;1545;51.728;8.796;2023-02-01T03:00:50;5.20;94.10
3069;DHT22;1545;51.728;8.796;2023-02-01T03:03:39;5.20;93.80
3069;DHT22;1545;51.728;8.796;2023-02-01T03:06:24;5.20;93.40
3069;DHT22;1545;51.728;8.796;2023-02-01T03:08:50;5.20;93.30
3069;DHT22;1545;51.728;8.796;2023-02-01T03:11:22;5.10;93.40
3069;DHT22;1545;51.728;8.796;2023-02-01T03:13:49;5.20;92.80
3069;DHT22;1545;51.728;8.796;2023-02-01T03:18:50;5.30;92.30
3069;DHT22;1545;51.728;8.796;2023-02-01T03:21:22;5.20;92.10
3069;DHT22;1545;51.728;8.796;2023-02-01T03:23:50;5.20;92.20
3069;DHT22;1545;51.728;8.796;2023-02-01T03:26:18;5.20;91.80
3069;DHT22;1545;51.728;8.796;2023-02-01T03:28:52;5.20;91.60
3069;DHT22;1545;51.728;8.796;2023-02-01T03:31:20;5.20;91.70
3069;DHT22;1545;51.728;8.796;2023-02-01T03:33:46;5.20;91.80
3069;DHT22;1545;51.728;8.796;2023-02-01T03:36:25;5.30;91.40
3069;DHT22;1545;51.728;8.796;2023-02-01T03:38:54;5.30;91.30
3069;DHT22;1545;51.728;8.796;2023-02-01T03:41:43;5.30;91.30
3069;DHT22;1545;51.728;8.796;2023-02-01T03:46:57;5.30;90.80
3069;DHT22;1545;51.728;8.796;2023-02-01T03:52:00;5.30;91.40
3069;DHT22;1545;51.728;8.796;2023-02-01T03:54:28;5.40;91.30
3069;DHT22;1545;51.728;8.796;2023-02-01T03:56:56;5.40;91.30
3069;DHT22;1545;51.728;8.796;2023-02-01T03:59:22;5.40;91.50
3069;DHT22;1545;51.728;8.796;2023-02-01T04:01:49;5.40;91.60
3069;DHT22;1545;51.728;8.796;2023-02-01T04:04:14;5.40;91.60
3069;DHT22;1545;51.728;8.796;2023-02-01T04:06:46;5.30;91.60
3069;DHT22;1545;51.728;8.796;2023-02-01T04:09:11;5.40;91.80
3069;DHT22;1545;51.728;8.796;2023-02-01T04:11:37;5.40;91.90
3069;DHT22;1545;51.728;8.796;2023-02-01T04:14:02;5.40;91.90
3069;DHT22;1545;51.728;8.796;2023-02-01T04:16:30;5.40;91.80
3069;DHT22;1545;51.728;8.796;2023-02-01T04:18:55;5.40;91.90
3069;DHT22;1545;51.728;8.796;2023-02-01T04:21:22;5.40;91.80
3069;DHT22;1545;51.728;8.796;2023-02-01T04:23:48;5.30;92.00
3069;DHT22;1545;51.728;8.796;2023-02-01T04:26:13;5.30;92.10
3069;DHT22;1545;51.728;8.796;2023-02-01T04:28:41;5.40;92.10
3069;DHT22;1545;51.728;8.796;2023-02-01T04:31:07;5.40;91.70
3069;DHT22;1545;51.728;8.796;2023-02-01T04:33:32;5.40;92.10
3069;DHT22;1545;51.728;8.796;2023-02-01T04:35:58;5.40;91.90
3069;DHT22;1545;51.728;8.796;2023-02-01T04:38:23;5.40;91.80
3069;DHT22;1545;51.728;8.796;2023-02-01T04:40:49;5.40;91.70
3069;DHT22;1545;51.728;8.796;2023-02-01T04:43:16;5.40;91.80
3069;DHT22;1545;51.728;8.796;2023-02-01T04:45:41;5.40;91.70
3069;DHT22;1545;51.728;8.796;2023-02-01T04:48:07;5.40;91.50
3069;DHT22;1545;51.728;8.796;2023-02-01T04:50:32;5.40;91.90
3069;DHT22;1545;51.728;8.796;2023-02-01T04:52:58;5.40;91.90
3069;DHT22;1545;51.728;8.796;2023-02-01T04:55:23;5.40;92.10
3069;DHT22;1545;51.728;8.796;2023-02-01T04:57:49;5.40;92.00
3069;DHT22;1545;51.728;8.796;2023-02-01T05:00:14;5.40;92.30
3069;DHT22;1545;51.728;8.796;2023-02-01T05:02:40;5.40;92.50
3069;DHT22;1545;51.728;8.796;2023-02-01T05:05:06;5.40;92.60
3069;DHT22;1545;51.728;8.796;2023-02-01T05:07:31;5.30;92.80
3069;DHT22;1545;51.728;8.796;2023-02-01T05:09:57;5.30;93.00
3069;DHT22;1545;51.728;8.796;2023-02-01T05:12:22;5.30;93.20
3069;DHT22;1545;51.728;8.796;2023-02-01T05:15:07;5.30;92.90
3069;DHT22;1545;51.728;8.796;2023-02-01T05:17:32;5.30;92.80
3069;DHT22;1545;51.728;8.796;2023-02-01T05:19:58;5.30;92.80
3069;DHT22;1545;51.728;8.796;2023-02-01T05:22:23;5.30;92.60
3069;DHT22;1545;51.728;8.796;2023-02-01T05:24:49;5.30;92.20
3069;DHT22;1545;51.728;8.796;2023-02-01T05:27:14;5.30;92.50
3069;DHT22;1545;51.728;8.796;2023-02-01T05:29:40;5.30;92.60
3069;DHT22;1545;51.728;8.796;2023-02-01T05:32:05;5.30;92.90
3069;DHT22;1545;51.728;8.796;2023-02-01T05:34:30;5.30;92.90
3069;DHT22;1545;51.728;8.796;2023-02-01T05:36:56;5.30;92.90
3069;DHT22;1545;51.728;8.796;2023-02-01T05:39:21;5.30;92.90
3069;DHT22;1545;51.728;8.796;2023-02-01T05:41:47;5.30;92.70
3069;DHT22;1545;51.728;8.796;2023-02-01T05:44:12;5.30;93.20
3069;DHT22;1545;51.728;8.796;2023-02-01T05:46:38;5.30;93.20
3069;DHT22;1545;51.728;8.796;2023-02-01T05:49:04;5.30;93.70
3069;DHT22;1545;51.728;8.796;2023-02-01T05:51:30;5.30;93.70
3069;DHT22;1545;51.728;8.796;2023-02-01T05:53:55;5.20;93.70
3069;DHT22;1545;51.728;8.796;2023-02-01T05:56:21;5.20;93.80
3069;DHT22;1545;51.728;8.796;2023-02-01T05:58:46;5.20;93.60
3069;DHT22;1545;51.728;8.796;2023-02-01T06:01:12;5.20;93.40
3069;DHT22;1545;51.728;8.796;2023-02-01T06:03:37;5.30;93.20
3069;DHT22;1545;51.728;8.796;2023-02-01T06:06:03;5.30;92.80
3069;DHT22;1545;51.728;8.796;2023-02-01T06:08:29;5.30;92.90
3069;DHT22;1545;51.728;8.796;2023-02-01T06:11:02;5.30;92.70
3069;DHT22;1545;51.728;8.796;2023-02-01T06:13:29;5.30;92.90
3069;DHT22;1545;51.728;8.796;2023-02-01T06:15:54;5.30;92.70
3069;DHT22;1545;51.728;8.796;2023-02-01T06:18:21;5.30;92.60
3069;DHT22;1545;51.728;8.796;2023-02-01T06:20:52;5.30;92.80
3069;DHT22;1545;51.728;8.796;2023-02-01T06:23:18;5.40;92.70
3069;DHT22;1545;51.728;8.796;2023-02-01T06:25:43;5.40;92.10
3069;DHT22;1545;51.728;8.796;2023-02-01T06:28:10;5.40;91.90
3069;DHT22;1545;51.728;8.796;2023-02-01T06:30:35;5.40;91.70
3069;DHT22;1545;51.728;8.796;2023-02-01T06:33:01;5.50;91.70
3069;DHT22;1545;51.728;8.796;2023-02-01T06:35:26;5.50;91.80
3069;DHT22;1545;51.728;8.796;2023-02-01T06:37:52;5.50;91.70
3069;DHT22;1545;51.728;8.796;2023-02-01T06:40:17;5.60;91.70
3069;DHT22;1545;51.728;8.796;2023-02-01T06:42:43;5.60;91.50
3069;DHT22;1545;51.728;8.796;2023-02-01T06:45:09;5.70;90.80
3069;DHT22;1545;51.728;8.796;2023-02-01T06:47:35;5.70;90.90
3069;DHT22;1545;51.728;8.796;2023-02-01T06:50:01;5.70;90.60
3069;DHT22;1545;51.728;8.796;2023-02-01T06:52:26;5.70;90.50
3069;DHT22;1545;51.728;8.796;2023-02-01T06:54:52;5.70;90.60
3069;DHT22;1545;51.728;8.796;2023-02-01T06:57:17;5.70;90.20
3069;DHT22;1545;51.728;8.796;2023-02-01T06:59:43;5.80;90.10
3069;DHT22;1545;51.728;8.796;2023-02-01T07:02:11;5.80;90.00
3069;DHT22;1545;51.728;8.796;2023-02-01T07:04:37;5.70;90.10
3069;DHT22;1545;51.728;8.796;2023-02-01T07:07:03;5.70;90.30
3069;DHT22;1545;51.728;8.796;2023-02-01T07:09:28;5.70;90.10
3069;DHT22;1545;51.728;8.796;2023-02-01T07:11:54;5.80;90.00
3069;DHT22;1545;51.728;8.796;2023-02-01T07:14:19;5.80;90.00
3069;DHT22;1545;51.728;8.796;2023-02-01T07:16:45;5.80;89.90
3069;DHT22;1545;51.728;8.796;2023-02-01T07:19:10;5.80;90.00
3069;DHT22;1545;51.728;8.796;2023-02-01T07:21:36;5.70;90.00
3069;DHT22;1545;51.728;8.796;2023-02-01T07:24:01;5.70;90.00
3069;DHT22;1545;51.728;8.796;2023-02-01T07:26:26;5.70;90.20
3069;DHT22;1545;51.728;8.796;2023-02-01T07:28:52;5.70;89.90
3069;DHT22;1545;51.728;8.796;2023-02-01T07:31:18;5.70;90.00
3069;DHT22;1545;51.728;8.796;2023-02-01T07:33:46;5.70;90.00
3069;DHT22;1545;51.728;8.796;2023-02-01T07:36:14;5.80;89.80
3069;DHT22;1545;51.728;8.796;2023-02-01T07:38:40;5.80;89.80
3069;DHT22;1545;51.728;8.796;2023-02-01T07:41:06;5.80;89.70
3069;DHT22;1545;51.728;8.796;2023-02-01T07:43:32;5.80;89.70
3069;DHT22;1545;51.728;8.796;2023-02-01T07:46:01;5.80;89.60
3069;DHT22;1545;51.728;8.796;2023-02-01T07:48:27;5.80;89.60
3069;DHT22;1545;51.728;8.796;2023-02-01T07:51:11;5.80;89.50
3069;DHT22;1545;51.728;8.796;2023-02-01T07:53:38;5.80;89.80
3069;DHT22;1545;51.728;8.796;2023-02-01T07:56:08;5.80;89.70
3069;DHT22;1545;51.728;8.796;2023-02-01T07:58:35;5.80;89.70
3069;DHT22;1545;51.728;8.796;2023-02-01T08:01:00;5.80;89.30
3069;DHT22;1545;51.728;8.796;2023-02-01T08:03:44;5.90;89.00
3069;DHT22;1545;51.728;8.796;2023-02-01T08:06:10;5.90;88.90
3069;DHT22;1545;51.728;8.796;2023-02-01T08:08:35;5.90;89.00
3069;DHT22;1545;51.728;8.796;2023-02-01T08:11:03;5.90;89.10
3069;DHT22;1545;51.728;8.796;2023-02-01T08:13:29;5.90;89.20
3069;DHT22;1545;51.728;8.796;2023-02-01T08:15:59;5.90;89.10
3069;DHT22;1545;51.728;8.796;2023-02-01T08:18:25;6.00;89.20
3069;DHT22;1545;51.728;8.796;2023-02-01T08:20:51;6.00;89.40
3069;DHT22;1545;51.728;8.796;2023-02-01T08:23:16;6.00;89.50
3069;DHT22;1545;51.728;8.796;2023-02-01T08:25:43;6.00;89.60
3069;DHT22;1545;51.728;8.796;2023-02-01T08:28:08;6.00;89.60
3069;DHT22;1545;51.728;8.796;2023-02-01T08:30:37;5.90;89.80
3069;DHT22;1545;51.728;8.796;2023-02-01T08:33:04;5.90;89.80
3069;DHT22;1545;51.728;8.796;2023-02-01T08:35:31;5.90;90.10
3069;DHT22;1545;51.728;8.796;2023-02-01T08:37:57;6.00;90.00
3069;DHT22;1545;51.728;8.796;2023-02-01T08:40:22;6.00;89.50
3069;DHT22;1545;51.728;8.796;2023-02-01T08:42:48;6.10;89.60
3069;DHT22;1545;51.728;8.796;2023-02-01T08:45:25;6.10;89.60
3069;DHT22;1545;51.728;8.796;2023-02-01T08:47:51;6.10;89.70
3069;DHT22;1545;51.728;8.796;2023-02-01T08:50:18;6.10;89.80
3069;DHT22;1545;51.728;8.796;2023-02-01T08:52:43;6.00;90.10
3069;DHT22;1545;51.728;8.796;2023-02-01T08:55:10;6.00;90.30
3069;DHT22;1545;51.728;8.796;2023-02-01T08:57:36;6.10;90.30
3069;DHT22;1545;51.728;8.796;2023-02-01T09:00:03;6.10;90.40
3069;DHT22;1545;51.728;8.796;2023-02-01T09:02:28;6.10;90.40
3069;DHT22;1545;51.728;8.796;2023-02-01T09:04:55;6.10;90.40
3069;DHT22;1545;51.728;8.796;2023-02-01T09:07:21;6.20;90.30
3069;DHT22;1545;51.728;8.796;2023-02-01T09:09:47;6.20;90.40
3069;DHT22;1545;51.728;8.796;2023-02-01T09:12:13;6.10;90.20
3069;DHT22;1545;51.728;8.796;2023-02-01T09:14:39;6.10;90.20
3069;DHT22;1545;51.728;8.796;2023-02-01T09:17:05;6.10;90.30
3069;DHT22;1545;51.728;8.796;2023-02-01T09:19:33;6.10;90.40
3069;DHT22;1545;51.728;8.796;2023-02-01T09:21:58;6.10;90.40
3069;DHT22;1545;51.728;8.796;2023-02-01T09:24:24;6.20;90.00
3069;DHT22;1545;51.728;8.796;2023-02-01T09:26:49;6.30;89.90
3069;DHT22;1545;51.728;8.796;2023-02-01T09:29:15;6.30;89.40
3069;DHT22;1545;51.728;8.796;2023-02-01T09:31:41;6.20;89.30
3069;DHT22;1545;51.728;8.796;2023-02-01T09:34:07;6.20;89.40
3069;DHT22;1545;51.728;8.796;2023-02-01T09:36:33;6.20;89.30
3069;DHT22;1545;51.728;8.796;2023-02-01T09:38:59;6.20;89.30
3069;DHT22;1545;51.728;8.796;2023-02-01T09:46:57;6.10;89.50
3069;DHT22;1545;51.728;8.796;2023-02-01T09:49:34;6.20;89.60
3069;DHT22;1545;51.728;8.796;2023-02-01T09:52:04;6.20;89.20
3069;DHT22;1545;51.728;8.796;2023-02-01T09:54:44;6.30;88.90
3069;DHT22;1545;51.728;8.796;2023-02-01T09:57:21;6.30;89.00
3069;DHT22;1545;51.728;8.796;2023-02-01T10:00:00;6.30;89.00
3069;DHT22;1545;51.728;8.796;2023-02-01T10:02:28;6.30;89.00
3069;DHT22;1545;51.728;8.796;2023-02-01T10:04:57;6.30;89.10
3069;DHT22;1545;51.728;8.796;2023-02-01T10:07:47;6.30;89.20
3069;DHT22;1545;51.728;8.796;2023-02-01T10:10:17;6.30;89.00
3069;DHT22;1545;51.728;8.796;2023-02-01T10:26:20;6.20;89.60
3069;DHT22;1545;51.728;8.796;2023-02-01T10:28:55;6.20;89.70
3069;DHT22;1545;51.728;8.796;2023-02-01T10:31:24;6.20;89.60
3069;DHT22;1545;51.728;8.796;2023-02-01T10:33:56;6.20;89.60
3069;DHT22;1545;51.728;8.796;2023-02-01T10:36:32;6.30;89.60
3069;DHT22;1545;51.728;8.796;2023-02-01T10:39:00;6.30;89.70
3069;DHT22;1545;51.728;8.796;2023-02-01T10:41:31;6.40;89.30
3069;DHT22;1545;51.728;8.796;2023-02-01T10:43:58;6.50;89.00
3069;DHT22;1545;51.728;8.796;2023-02-01T10:46:26;6.50;88.70
3069;DHT22;1545;51.728;8.796;2023-02-01T10:48:55;6.50;88.80
3069;DHT22;1545;51.728;8.796;2023-02-01T10:51:42;6.60;88.50
3069;DHT22;1545;51.728;8.796;2023-02-01T10:54:18;6.70;87.90
3069;DHT22;1545;51.728;8.796;2023-02-01T10:56:46;6.70;88.00
3069;DHT22;1545;51.728;8.796;2023-02-01T10:59:20;6.70;88.00
3069;DHT22;1545;51.728;8.796;2023-02-01T11:01:47;6.60;88.10
3069;DHT22;1545;51.728;8.796;2023-02-01T11:04:15;6.60;88.20
3069;DHT22;1545;51.728;8.796;2023-02-01T11:06:44;6.50;88.50
3069;DHT22;1545;51.728;8.796;2023-02-01T11:11:59;6.50;88.50
3069;DHT22;1545;51.728;8.796;2023-02-01T11:17:24;6.40;88.70
3069;DHT22;1545;51.728;8.796;2023-02-01T11:19:57;6.40;88.70
3069;DHT22;1545;51.728;8.796;2023-02-01T11:22:25;6.40;88.90
3069;DHT22;1545;51.728;8.796;2023-02-01T11:24:56;6.50;88.90
3069;DHT22;1545;51.728;8.796;2023-02-01T11:27:24;6.50;88.70
3069;DHT22;1545;51.728;8.796;2023-02-01T11:29:53;6.50;88.90
3069;DHT22;1545;51.728;8.796;2023-02-01T11:32:22;6.50;88.50
3069;DHT22;1545;51.728;8.796;2023-02-01T11:34:59;6.50;88.60
3069;DHT22;1545;51.728;8.796;2023-02-01T11:39:59;6.50;88.60
3069;DHT22;1545;51.728;8.796;2023-02-01T11:42:26;6.50;88.50
3069;DHT22;1545;51.728;8.796;2023-02-01T11:45:31;6.50;88.60
3069;DHT22;1545;51.728;8.796;2023-02-01T11:47:58;6.50;88.40
3069;DHT22;1545;51.728;8.796;2023-02-01T11:50:39;6.60;88.00
3069;DHT22;1545;51.728;8.796;2023-02-01T11:56:08;6.60;88.00
3069;DHT22;1545;51.728;8.796;2023-02-01T12:07:43;6.50;88.10
3069;DHT22;1545;51.728;8.796;2023-02-01T12:22:08;6.50;89.30
3069;DHT22;1545;51.728;8.796;2023-02-01T12:25:09;6.40;89.80
3069;DHT22;1545;51.728;8.796;2023-02-01T12:28:01;6.40;90.60
3069;DHT22;1545;51.728;8.796;2023-02-01T12:33:39;6.30;91.20
3069;DHT22;1545;51.728;8.796;2023-02-01T12:36:12;6.30;91.80
3069;DHT22;1545;51.728;8.796;2023-02-01T12:38:53;6.30;92.10
3069;DHT22;1545;51.728;8.796;2023-02-01T12:41:37;6.30;92.10
3069;DHT22;1545;51.728;8.796;2023-02-01T12:47:35;6.30;92.50
3069;DHT22;1545;51.728;8.796;2023-02-01T12:52:49;6.10;93.30
3069;DHT22;1545;51.728;8.796;2023-02-01T12:55:52;6.10;93.40
3069;DHT22;1545;51.728;8.796;2023-02-01T12:58:38;6.00;94.50
3069;DHT22;1545;51.728;8.796;2023-02-01T13:01:20;6.00;95.20
3069;DHT22;1545;51.728;8.796;2023-02-01T13:06:45;5.90;95.80
3069;DHT22;1545;51.728;8.796;2023-02-01T13:11:50;5.90;96.00
3069;DHT22;1545;51.728;8.796;2023-02-01T13:14:32;5.80;96.40
3069;DHT22;1545;51.728;8.796;2023-02-01T13:17:05;5.80;97.10
3069;DHT22;1545;51.728;8.796;2023-02-01T13:20:21;5.80;97.30
3069;DHT22;1545;51.728;8.796;2023-02-01T13:23:14;5.60;97.90
3069;DHT22;1545;51.728;8.796;2023-02-01T13:25:48;5.60;98.80
3069;DHT22;1545;51.728;8.796;2023-02-01T13:28:31;5.50;98.80
3069;DHT22;1545;51.728;8.796;2023-02-01T13:31:31;5.50;98.80
3069;DHT22;1545;51.728;8.796;2023-02-01T13:34:27;5.40;98.80
3069;DHT22;1545;51.728;8.796;2023-02-01T13:42:54;5.40;98.80
3069;DHT22;1545;51.728;8.796;2023-02-01T13:45:25;5.50;98.80
3069;DHT22;1545;51.728;8.796;2023-02-01T13:47:54;5.50;98.80
3069;DHT22;1545;51.728;8.796;2023-02-01T13:50:40;5.50;98.80
3069;DHT22;1545;51.728;8.796;2023-02-01T13:55:45;5.50;98.80
3069;DHT22;1545;51.728;8.796;2023-02-01T13:58:37;5.50;98.80
3069;DHT22;1545;51.728;8.796;2023-02-01T14:03:56;5.60;98.80
3069;DHT22;1545;51.728;8.796;2023-02-01T14:09:15;5.70;98.80
3069;DHT22;1545;51.728;8.796;2023-02-01T14:19:35;5.80;98.80
3069;DHT22;1545;51.728;8.796;2023-02-01T14:22:34;5.80;98.80
3069;DHT22;1545;51.728;8.796;2023-02-01T14:25:00;5.80;98.80
3069;DHT22;1545;51.728;8.796;2023-02-01T14:27:28;5.80;98.80
3069;DHT22;1545;51.728;8.796;2023-02-01T14:29:58;5.80;98.80
3069;DHT22;1545;51.728;8.796;2023-02-01T14:32:30;5.90;98.80
3069;DHT22;1545;51.728;8.796;2023-02-01T14:34:59;5.90;98.60
3069;DHT22;1545;51.728;8.796;2023-02-01T14:37:35;5.90;98.80
3069;DHT22;1545;51.728;8.796;2023-02-01T14:40:03;5.90;98.30
3069;DHT22;1545;51.728;8.796;2023-02-01T14:42:49;6.00;98.00
3069;DHT22;1545;51.728;8.796;2023-02-01T14:47:52;6.10;97.10
3069;DHT22;1545;51.728;8.796;2023-02-01T15:01:00;6.30;95.20
3069;DHT22;1545;51.728;8.796;2023-02-01T15:06:38;6.30;95.50
3069;DHT22;1545;51.728;8.796;2023-02-01T15:09:27;6.30;96.00
3069;DHT22;1545;51.728;8.796;2023-02-01T15:12:14;6.20;96.90
3069;DHT22;1545;51.728;8.796;2023-02-01T15:14:48;6.10;97.00
3069;DHT22;1545;51.728;8.796;2023-02-01T15:17:29;6.10;97.00
3069;DHT22;1545;51.728;8.796;2023-02-01T15:20:13;6.10;97.20
3069;DHT22;1545;51.728;8.796;2023-02-01T15:22:40;6.00;97.80
3069;DHT22;1545;51.728;8.796;2023-02-01T15:25:18;6.00;98.00
3069;DHT22;1545;51.728;8.796;2023-02-01T15:27:51;5.80;98.50
3069;DHT22;1545;51.728;8.796;2023-02-01T15:30:28;4.70;98.10
3069;DHT22;1545;51.728;8.796;2023-02-01T15:35:45;3.50;98.80
3069;DHT22;1545;51.728;8.796;2023-02-01T15:38:44;3.30;98.80
3069;DHT22;1545;51.728;8.796;2023-02-01T15:41:20;3.20;98.80
3069;DHT22;1545;51.728;8.796;2023-02-01T15:46:28;3.20;98.80
3069;DHT22;1545;51.728;8.796;2023-02-01T15:48:55;3.20;98.80
3069;DHT22;1545;51.728;8.796;2023-02-01T15:51:25;3.30;98.80
3069;DHT22;1545;51.728;8.796;2023-02-01T15:53:55;3.30;98.80
3069;DHT22;1545;51.728;8.796;2023-02-01T15:56:27;3.30;98.80
3069;DHT22;1545;51.728;8.796;2023-02-01T15:58:56;3.40;98.80
3069;DHT22;1545;51.728;8.796;2023-02-01T16:01:23;3.60;98.80
3069;DHT22;1545;51.728;8.796;2023-02-01T16:03:49;3.70;98.80
3069;DHT22;1545;51.728;8.796;2023-02-01T16:08:54;3.90;98.80
3069;DHT22;1545;51.728;8.796;2023-02-01T16:11:31;3.90;98.80
3069;DHT22;1545;51.728;8.796;2023-02-01T16:13:58;4.00;98.80
3069;DHT22;1545;51.728;8.796;2023-02-01T16:16:26;4.20;98.80
3069;DHT22;1545;51.728;8.796;2023-02-01T16:18:52;4.50;98.80
3069;DHT22;1545;51.728;8.796;2023-02-01T16:21:17;4.60;98.80
3069;DHT22;1545;51.728;8.796;2023-02-01T16:23:43;4.70;98.80
3069;DHT22;1545;51.728;8.796;2023-02-01T16:26:09;4.80;98.80
3069;DHT22;1545;51.728;8.796;2023-02-01T16:28:35;4.90;98.80
3069;DHT22;1545;51.728;8.796;2023-02-01T16:31:01;4.80;98.80
3069;DHT22;1545;51.728;8.796;2023-02-01T16:33:27;4.70;98.80
3069;DHT22;1545;51.728;8.796;2023-02-01T16:35:56;4.70;98.80
3069;DHT22;1545;51.728;8.796;2023-02-01T16:38:25;4.60;98.80
3069;DHT22;1545;51.728;8.796;2023-02-01T16:40:51;4.60;98.80
3069;DHT22;1545;51.728;8.796;2023-02-01T16:43:19;4.60;98.80
3069;DHT22;1545;51.728;8.796;2023-02-01T16:45:47;4.60;98.80
3069;DHT22;1545;51.728;8.796;2023-02-01T16:48:20;4.50;98.80
3069;DHT22;1545;51.728;8.796;2023-02-01T16:50:50;4.50;98.80
3069;DHT22;1545;51.728;8.796;2023-02-01T16:53:17;4.50;98.80
3069;DHT22;1545;51.728;8.796;2023-02-01T16:55:46;4.50;98.80
3069;DHT22;1545;51.728;8.796;2023-02-01T16:58:13;4.60;98.80
3069;DHT22;1545;51.728;8.796;2023-02-01T17:00:39;4.60;98.80
3069;DHT22;1545;51.728;8.796;2023-02-01T17:03:04;4.60;98.80
3069;DHT22;1545;51.728;8.796;2023-02-01T17:05:31;4.60;98.80
3069;DHT22;1545;51.728;8.796;2023-02-01T17:08:02;4.60;98.80
3069;DHT22;1545;51.728;8.796;2023-02-01T17:10:31;4.50;98.80
3069;DHT22;1545;51.728;8.796;2023-02-01T17:12:57;4.50;98.80
3069;DHT22;1545;51.728;8.796;2023-02-01T17:15:24;4.50;98.80
3069;DHT22;1545;51.728;8.796;2023-02-01T17:17:51;4.50;98.80
3069;DHT22;1545;51.728;8.796;2023-02-01T17:20:24;4.60;98.60
3069;DHT22;1545;51.728;8.796;2023-02-01T17:22:51;4.60;98.40
3069;DHT22;1545;51.728;8.796;2023-02-01T17:25:19;4.60;98.10
3069;DHT22;1545;51.728;8.796;2023-02-01T17:27:49;4.60;97.70
3069;DHT22;1545;51.728;8.796;2023-02-01T17:30:15;4.60;98.30
3069;DHT22;1545;51.728;8.796;2023-02-01T17:32:41;4.50;98.70
3069;DHT22;1545;51.728;8.796;2023-02-01T17:35:22;4.50;98.70
3069;DHT22;1545;51.728;8.796;2023-02-01T17:37:48;4.30;98.80
3069;DHT22;1545;51.728;8.796;2023-02-01T17:40:14;4.30;98.80
3069;DHT22;1545;51.728;8.796;2023-02-01T17:42:40;4.20;98.80
3069;DHT22;1545;51.728;8.796;2023-02-01T17:45:39;4.20;98.80
3069;DHT22;1545;51.728;8.796;2023-02-01T17:48:07;4.30;98.80
3069;DHT22;1545;51.728;8.796;2023-02-01T17:50:37;4.30;98.80
3069;DHT22;1545;51.728;8.796;2023-02-01T17:53:04;4.40;98.80
3069;DHT22;1545;51.728;8.796;2023-02-01T17:55:32;4.50;98.80
3069;DHT22;1545;51.728;8.796;2023-02-01T17:57:59;4.50;98.80
3069;DHT22;1545;51.728;8.796;2023-02-01T18:00:24;4.60;98.80
3069;DHT22;1545;51.728;8.796;2023-02-01T18:02:50;4.50;98.80
3069;DHT22;1545;51.728;8.796;2023-02-01T18:05:37;4.40;98.80
3069;DHT22;1545;51.728;8.796;2023-02-01T18:08:03;4.30;98.80
3069;DHT22;1545;51.728;8.796;2023-02-01T18:10:29;4.30;98.80
3069;DHT22;1545;51.728;8.796;2023-02-01T18:12:55;4.30;98.80
3069;DHT22;1545;51.728;8.796;2023-02-01T18:15:23;4.30;98.80
3069;DHT22;1545;51.728;8.796;2023-02-01T18:17:49;4.20;98.80
3069;DHT22;1545;51.728;8.796;2023-02-01T18:20:21;4.20;98.80
3069;DHT22;1545;51.728;8.796;2023-02-01T18:22:47;4.20;98.80
3069;DHT22;1545;51.728;8.796;2023-02-01T18:25:33;4.20;98.80
3069;DHT22;1545;51.728;8.796;2023-02-01T18:28:01;4.20;98.80
3069;DHT22;1545;51.728;8.796;2023-02-01T18:30:31;4.20;98.80
3069;DHT22;1545;51.728;8.796;2023-02-01T18:32:58;4.20;98.80
3069;DHT22;1545;51.728;8.796;2023-02-01T18:35:28;4.10;98.80
3069;DHT22;1545;51.728;8.796;2023-02-01T18:37:54;4.00;98.80
3069;DHT22;1545;51.728;8.796;2023-02-01T18:40:32;4.10;98.80
3069;DHT22;1545;51.728;8.796;2023-02-01T18:42:59;4.10;98.80